Time;durP1;ratioP1;P1;durP2;ratioP2;P2;SDS_P1;SDS_P2;PMS_P1;PMS_P2;Temp;Humidity;BMP_temperature;BMP_pressure;BME280_temperature;BME280_humidity;BME280_pressure;Samples;Min_cycle;Max_cycle;Signal;HPM_P1;HPM_P2
2022/07/03 00:02:20;;;;;;;4.03;1.85;;;18.20;86.20;;;;;;5120489;27;20143;-69
2022/07/03 00:04:45;;;;;;;4.78;1.60;;;18.10;86.80;;;;;;5115945;27;20380;-68
2022/07/03 00:07:12;;;;;;;3.63;1.58;;;18.00;87.20;;;;;;5114377;27;20026;-68
2022/07/03 00:09:37;;;;;;;3.97;2.20;;;17.90;87.40;;;;;;5122155;27;20099;-68
2022/07/03 00:12:04;;;;;;;5.70;1.63;;;17.80;87.90;;;;;;5115150;27;20181;-68
2022/07/03 00:14:30;;;;;;;3.45;1.45;;;17.80;87.80;;;;;;5117457;28;20076;-68
2022/07/03 00:16:56;;;;;;;3.33;1.50;;;17.80;87.90;;;;;;5116916;27;20028;-68
2022/07/03 00:19:21;;;;;;;4.35;1.40;;;17.80;88.00;;;;;;5114496;28;20032;-68
2022/07/03 00:22:03;;;;;;;4.97;1.80;;;17.80;88.20;;;;;;5096981;27;20358;-68
2022/07/03 00:24:37;;;;;;;5.88;1.70;;;17.80;88.30;;;;;;5105880;27;20023;-68
2022/07/03 00:27:07;;;;;;;3.83;1.73;;;17.70;88.50;;;;;;5113016;27;20022;-68
2022/07/03 00:29:40;;;;;;;5.03;1.50;;;17.70;88.60;;;;;;5115952;27;20023;-68
2022/07/03 00:32:09;;;;;;;3.78;1.55;;;17.70;88.70;;;;;;5111905;27;20036;-68
2022/07/03 00:34:35;;;;;;;6.80;1.88;;;17.80;88.70;;;;;;5113936;27;20493;-68
2022/07/03 00:37:03;;;;;;;4.85;1.70;;;17.80;88.50;;;;;;5116187;27;20031;-69
2022/07/03 00:39:32;;;;;;;2.63;1.50;;;17.70;88.60;;;;;;5114749;27;20488;-69
2022/07/03 00:42:02;;;;;;;4.43;1.92;;;17.70;88.60;;;;;;5113007;28;20062;-68
2022/07/03 00:44:29;;;;;;;4.03;1.70;;;17.70;88.70;;;;;;5116861;27;20063;-69
2022/07/03 00:46:56;;;;;;;3.63;1.55;;;17.70;89.30;;;;;;5114865;27;20329;-68
2022/07/03 00:49:25;;;;;;;4.40;1.42;;;17.60;89.40;;;;;;5114226;28;20042;-68
2022/07/03 00:51:52;;;;;;;3.15;1.50;;;17.50;89.60;;;;;;5112363;27;20056;-68
2022/07/03 00:54:21;;;;;;;5.38;1.50;;;17.50;89.40;;;;;;5111639;27;20042;-68
2022/07/03 00:56:51;;;;;;;3.75;1.60;;;17.50;89.80;;;;;;5114241;27;20050;-70
2022/07/03 00:59:17;;;;;;;3.53;1.48;;;17.30;90.40;;;;;;5115657;28;20362;-68
2022/07/03 01:01:45;;;;;;;4.43;1.70;;;17.30;90.00;;;;;;5109441;28;20313;-68
2022/07/03 01:04:29;;;;;;;3.47;1.45;;;17.60;89.10;;;;;;5114183;28;20023;-69
2022/07/03 01:07:06;;;;;;;2.72;1.50;;;17.80;88.00;;;;;;5112567;28;20089;-69
2022/07/03 01:09:42;;;;;;;2.25;1.20;;;18.10;86.90;;;;;;5113857;28;20424;-68
2022/07/03 01:12:19;;;;;;;3.35;1.60;;;18.20;87.00;;;;;;5099969;27;20203;-68
2022/07/03 01:15:11;;;;;;;2.50;1.40;;;18.10;88.00;;;;;;5112425;28;20362;-68
2022/07/03 01:17:48;;;;;;;4.47;1.38;;;17.90;87.70;;;;;;5116139;27;21934;-68
2022/07/03 01:20:23;;;;;;;3.85;1.60;;;17.70;88.40;;;;;;5114160;27;20335;-68
2022/07/03 01:23:06;;;;;;;3.70;1.52;;;17.50;90.20;;;;;;5116034;28;20145;-69
2022/07/03 01:25:46;;;;;;;3.20;1.50;;;17.10;91.40;;;;;;5114243;27;21521;-69
2022/07/03 01:28:18;;;;;;;3.42;1.70;;;16.80;92.40;;;;;;5115095;28;20456;-68
2022/07/03 01:30:51;;;;;;;4.05;1.77;;;16.60;92.90;;;;;;5111340;28;20027;-69
2022/07/03 01:33:21;;;;;;;4.57;1.83;;;16.60;93.00;;;;;;5116716;28;20032;-69
2022/07/03 01:36:01;;;;;;;3.85;1.60;;;16.50;93.80;;;;;;5111260;28;20032;-68
2022/07/03 01:38:40;;;;;;;4.50;1.65;;;16.40;94.10;;;;;;5118114;28;20020;-68
2022/07/03 01:41:08;;;;;;;6.57;1.77;;;16.30;94.30;;;;;;5109609;28;20024;-69
2022/07/03 01:43:39;;;;;;;3.42;1.65;;;16.20;94.60;;;;;;5111890;28;20032;-68
2022/07/03 01:46:05;;;;;;;6.47;2.40;;;16.10;94.70;;;;;;5108453;28;20024;-69
2022/07/03 01:48:32;;;;;;;4.57;1.77;;;16.10;94.90;;;;;;5108519;28;20078;-68
2022/07/03 01:50:59;;;;;;;4.10;1.75;;;16.00;95.20;;;;;;5108832;28;20028;-68
2022/07/03 01:53:27;;;;;;;5.63;1.75;;;15.90;95.40;;;;;;5105842;28;20032;-68
2022/07/03 01:55:57;;;;;;;2.92;1.67;;;15.90;95.50;;;;;;5108050;28;20598;-68
2022/07/03 01:58:22;;;;;;;5.28;1.90;;;15.80;95.70;;;;;;5098234;28;20032;-69
2022/07/03 02:01:29;;;;;;;6.07;1.77;;;15.80;95.80;;;;;;5107919;28;20038;-69
2022/07/03 02:04:13;;;;;;;4.40;1.83;;;15.70;96.00;;;;;;5094263;28;20092;-68
2022/07/03 02:06:41;;;;;;;3.60;1.92;;;15.50;96.40;;;;;;5108105;27;20432;-68
2022/07/03 02:09:10;;;;;;;3.05;1.67;;;15.40;96.60;;;;;;5099042;28;20618;-68
2022/07/03 02:11:38;;;;;;;5.18;1.90;;;15.40;96.60;;;;;;5108268;28;20039;-68
2022/07/03 02:14:14;;;;;;;2.88;1.70;;;15.30;96.90;;;;;;5110670;27;20032;-68
2022/07/03 02:17:04;;;;;;;5.03;1.90;;;15.20;97.10;;;;;;5117382;27;20030;-68
2022/07/03 02:19:59;;;;;;;5.07;1.90;;;15.20;97.00;;;;;;5103054;28;20015;-67
2022/07/03 02:22:35;;;;;;;3.75;1.80;;;15.10;97.10;;;;;;5111370;27;20019;-68
2022/07/03 02:25:05;;;;;;;3.50;1.80;;;15.00;97.30;;;;;;5115610;28;20024;-69
2022/07/03 02:27:45;;;;;;;4.22;2.00;;;15.00;97.50;;;;;;5107694;27;20088;-68
2022/07/03 02:30:13;;;;;;;3.25;1.65;;;15.00;97.30;;;;;;5107965;27;20024;-68
2022/07/03 02:32:45;;;;;;;3.58;1.60;;;15.00;97.30;;;;;;5108100;27;20107;-68
2022/07/03 02:35:21;;;;;;;3.28;1.88;;;15.00;97.50;;;;;;5112480;27;20030;-68
2022/07/03 02:37:55;;;;;;;6.40;1.92;;;15.10;97.50;;;;;;5105772;27;20040;-68
2022/07/03 02:40:25;;;;;;;2.75;1.60;;;15.00;97.50;;;;;;5104215;27;20016;-68
2022/07/03 02:43:17;;;;;;;2.65;1.63;;;15.00;97.70;;;;;;5103413;28;20028;-68
2022/07/03 02:45:55;;;;;;;4.60;2.03;;;14.90;97.50;;;;;;5105992;27;20293;-69
2022/07/03 02:48:42;;;;;;;4.88;1.90;;;14.80;97.60;;;;;;5101265;28;20027;-68
2022/07/03 02:51:19;;;;;;;4.05;1.80;;;14.90;97.70;;;;;;5106082;28;20019;-68
2022/07/03 02:53:59;;;;;;;3.53;1.80;;;14.90;97.50;;;;;;5098555;27;20058;-68
2022/07/03 02:56:43;;;;;;;4.97;1.80;;;14.90;97.50;;;;;;5102225;27;20055;-68
2022/07/03 02:59:29;;;;;;;4.35;2.13;;;14.90;97.80;;;;;;5103581;27;20479;-68
2022/07/03 03:02:11;;;;;;;2.80;1.45;;;15.00;97.50;;;;;;5059399;28;20424;-69
2022/07/03 03:04:41;;;;;;;4.35;1.88;;;15.10;97.30;;;;;;5104320;28;20023;-68
2022/07/03 03:07:14;;;;;;;4.85;2.10;;;15.20;97.40;;;;;;5107603;27;20046;-68
2022/07/03 03:09:48;;;;;;;4.82;1.83;;;15.20;97.40;;;;;;5100692;28;20519;-68
2022/07/03 03:12:14;;;;;;;3.88;2.00;;;15.10;97.30;;;;;;5104080;27;20110;-69
2022/07/03 03:14:42;;;;;;;4.40;1.90;;;15.10;97.50;;;;;;5104559;27;20366;-68
2022/07/03 03:17:36;;;;;;;4.47;1.95;;;15.10;97.50;;;;;;5104596;27;20034;-68
2022/07/03 03:20:03;;;;;;;3.33;1.70;;;15.10;97.70;;;;;;5091036;27;20130;-68
2022/07/03 03:22:56;;;;;;;5.78;1.90;;;15.10;97.70;;;;;;5102930;27;20097;-69
2022/07/03 03:25:25;;;;;;;3.22;1.77;;;15.10;97.70;;;;;;5105702;27;20024;-68
2022/07/03 03:27:51;;;;;;;7.38;1.83;;;15.10;97.80;;;;;;5103208;28;20482;-68
2022/07/03 03:30:17;;;;;;;5.35;2.17;;;14.90;97.70;;;;;;5101760;27;20152;-68
2022/07/03 03:32:43;;;;;;;5.82;1.95;;;14.90;97.70;;;;;;5105529;28;20111;-69
2022/07/03 03:35:09;;;;;;;3.13;1.73;;;14.90;97.80;;;;;;5096268;27;20024;-68
2022/07/03 03:37:35;;;;;;;3.40;2.00;;;14.80;97.70;;;;;;5104730;28;20031;-68
2022/07/03 03:40:02;;;;;;;5.70;2.00;;;14.70;97.80;;;;;;5106268;27;20106;-69
2022/07/03 03:42:28;;;;;;;3.80;1.88;;;14.70;97.80;;;;;;5095451;28;20050;-69
2022/07/03 03:44:54;;;;;;;7.93;2.85;;;14.70;97.90;;;;;;5105477;27;20036;-68
2022/07/03 03:47:19;;;;;;;5.75;2.10;;;14.70;97.90;;;;;;5100759;27;20016;-68
2022/07/03 03:49:45;;;;;;;4.78;1.80;;;14.80;97.90;;;;;;5102843;27;20035;-68
2022/07/03 03:52:11;;;;;;;3.22;1.85;;;14.80;97.80;;;;;;5104106;27;20036;-68
2022/07/03 03:54:37;;;;;;;5.53;1.90;;;14.90;97.90;;;;;;5101693;28;20056;-68
2022/07/03 03:57:22;;;;;;;3.83;2.10;;;14.80;97.80;;;;;;5101012;27;20036;-67
2022/07/03 03:59:48;;;;;;;4.55;2.05;;;14.80;97.70;;;;;;5103461;28;20059;-68
2022/07/03 04:02:14;;;;;;;7.60;2.28;;;14.80;97.80;;;;;;5103589;27;20124;-68
2022/07/03 04:04:40;;;;;;;7.15;2.20;;;14.70;97.70;;;;;;5098486;28;20530;-68
2022/07/03 04:07:06;;;;;;;3.70;1.80;;;14.70;97.70;;;;;;5097335;28;20028;-69
2022/07/03 04:09:32;;;;;;;4.43;1.85;;;14.60;97.50;;;;;;5102758;27;20028;-68
2022/07/03 04:11:57;;;;;;;3.40;1.80;;;14.70;97.50;;;;;;5104088;27;20031;-67
2022/07/03 04:14:28;;;;;;;3.50;1.83;;;14.80;97.70;;;;;;5102345;28;20293;-68
2022/07/03 04:16:54;;;;;;;5.10;1.92;;;14.70;97.60;;;;;;5104559;28;20043;-68
2022/07/03 04:19:21;;;;;;;3.60;2.00;;;14.80;97.70;;;;;;5103267;28;20024;-68
2022/07/03 04:21:47;;;;;;;5.68;2.05;;;14.90;97.90;;;;;;5100019;28;20028;-69
2022/07/03 04:24:12;;;;;;;7.03;2.45;;;14.90;97.80;;;;;;5099434;28;20020;-68
2022/07/03 04:26:38;;;;;;;3.90;1.80;;;15.00;97.80;;;;;;5105642;28;20440;-68
2022/07/03 04:29:03;;;;;;;3.88;1.85;;;15.00;97.90;;;;;;5097735;28;20032;-68
2022/07/03 04:31:29;;;;;;;4.68;1.92;;;14.90;97.70;;;;;;5102072;28;20097;-68
2022/07/03 04:33:55;;;;;;;4.28;2.03;;;14.90;97.50;;;;;;5101530;28;20114;-70
2022/07/03 04:36:20;;;;;;;4.28;1.90;;;15.00;97.80;;;;;;5105139;28;20042;-68
2022/07/03 04:38:49;;;;;;;4.05;2.08;;;15.10;97.30;;;;;;5100012;28;20072;-68
2022/07/03 04:41:14;;;;;;;5.68;1.98;;;15.00;97.70;;;;;;5103973;28;20439;-67
2022/07/03 04:43:40;;;;;;;3.97;1.92;;;15.10;97.60;;;;;;5106442;28;20043;-68
2022/07/03 04:46:05;;;;;;;3.80;2.10;;;15.10;97.70;;;;;;5107348;28;20056;-67
2022/07/03 04:48:32;;;;;;;3.40;1.95;;;15.10;98.00;;;;;;5113445;28;20027;-68
2022/07/03 04:51:01;;;;;;;3.80;1.92;;;15.10;97.80;;;;;;5116632;27;20032;-67
2022/07/03 04:53:26;;;;;;;5.55;1.80;;;15.00;97.80;;;;;;5111399;27;20038;-68
2022/07/03 04:55:52;;;;;;;4.47;2.10;;;15.00;97.90;;;;;;5113703;28;20024;-68
2022/07/03 04:58:18;;;;;;;2.92;1.70;;;15.00;97.80;;;;;;5113264;28;20054;-68
2022/07/03 05:00:44;;;;;;;4.28;2.00;;;15.10;97.50;;;;;;5114839;28;20177;-68
2022/07/03 05:03:11;;;;;;;4.10;1.90;;;15.20;98.00;;;;;;5102093;27;20467;-68
2022/07/03 05:05:37;;;;;;;5.30;2.00;;;15.40;98.00;;;;;;5103491;28;20023;-68
2022/07/03 05:08:03;;;;;;;3.28;1.73;;;15.40;97.90;;;;;;5102689;28;20373;-67
2022/07/03 05:10:32;;;;;;;5.28;2.15;;;15.40;97.90;;;;;;5106466;28;20031;-68
2022/07/03 05:12:57;;;;;;;3.70;1.98;;;15.60;98.00;;;;;;5114515;28;20102;-68
2022/07/03 05:15:23;;;;;;;5.18;1.90;;;15.60;98.00;;;;;;5111987;28;20122;-68
2022/07/03 05:17:49;;;;;;;3.45;2.00;;;15.70;98.00;;;;;;5114522;28;20404;-68
2022/07/03 05:20:23;;;;;;;3.60;2.00;;;15.70;97.90;;;;;;5112469;28;20088;-68
2022/07/03 05:22:52;;;;;;;3.53;2.10;;;15.70;98.00;;;;;;5113591;27;20039;-68
2022/07/03 05:25:19;;;;;;;4.10;2.00;;;15.70;97.60;;;;;;5111628;27;20431;-68
2022/07/03 05:27:45;;;;;;;5.05;2.00;;;15.90;98.00;;;;;;5111560;28;20094;-68
2022/07/03 05:30:11;;;;;;;3.70;2.00;;;16.00;97.80;;;;;;5107496;28;20057;-67
2022/07/03 05:32:37;;;;;;;6.00;2.00;;;16.20;98.00;;;;;;5111612;28;20019;-68
2022/07/03 05:35:03;;;;;;;4.03;2.00;;;16.50;98.00;;;;;;5107767;28;20066;-68
2022/07/03 05:37:29;;;;;;;3.30;1.67;;;16.80;98.00;;;;;;5114313;28;20301;-69
2022/07/03 05:39:54;;;;;;;5.38;1.70;;;17.10;97.90;;;;;;5115720;28;20084;-68
2022/07/03 05:42:20;;;;;;;3.10;1.60;;;17.30;96.20;;;;;;5119175;28;20023;-68
2022/07/03 05:44:46;;;;;;;5.28;1.92;;;17.60;96.90;;;;;;5118775;28;20544;-68
2022/07/03 05:47:11;;;;;;;2.88;1.60;;;17.70;97.60;;;;;;5118662;27;20088;-68
2022/07/03 05:49:38;;;;;;;3.58;1.60;;;17.90;97.20;;;;;;5120014;27;20027;-68
2022/07/03 05:52:07;;;;;;;3.83;1.48;;;18.10;96.20;;;;;;5117408;27;20031;-68
2022/07/03 05:54:32;;;;;;;3.13;1.40;;;18.30;94.60;;;;;;5100200;27;21697;-69
2022/07/03 05:56:58;;;;;;;4.40;1.65;;;18.50;93.10;;;;;;5096494;27;20059;-69
2022/07/03 05:59:27;;;;;;;3.00;1.58;;;18.70;91.20;;;;;;5098760;28;20077;-69
2022/07/03 06:01:52;;;;;;;3.63;1.55;;;18.90;91.00;;;;;;5109468;28;20028;-68
2022/07/03 06:04:18;;;;;;;2.85;1.20;;;19.20;92.80;;;;;;5094160;28;20032;-68
2022/07/03 06:06:44;;;;;;;4.63;1.30;;;19.20;89.80;;;;;;5098324;28;20486;-68
2022/07/03 06:09:09;;;;;;;4.65;1.45;;;19.40;89.60;;;;;;5102085;28;20351;-69
2022/07/03 06:11:44;;;;;;;2.63;1.13;;;19.60;88.00;;;;;;5096353;28;20039;-68
2022/07/03 06:14:09;;;;;;;2.95;1.40;;;19.70;86.90;;;;;;5119575;28;20204;-69
2022/07/03 06:16:35;;;;;;;2.63;1.10;;;19.80;87.00;;;;;;5115316;27;20373;-70
2022/07/03 06:19:01;;;;;;;2.45;1.10;;;19.80;85.50;;;;;;5120810;27;20023;-69
2022/07/03 06:21:26;;;;;;;2.80;1.10;;;19.90;84.90;;;;;;5118705;27;20327;-69
2022/07/03 06:23:52;;;;;;;3.33;1.05;;;20.00;82.60;;;;;;5115045;28;20042;-69
2022/07/03 06:26:18;;;;;;;2.85;1.20;;;20.00;82.00;;;;;;5112467;28;20054;-69
2022/07/03 06:28:43;;;;;;;3.75;1.50;;;20.10;82.10;;;;;;5095478;28;20123;-68
2022/07/03 06:31:10;;;;;;;2.65;1.17;;;20.20;80.90;;;;;;5095894;28;20416;-67
2022/07/03 06:33:35;;;;;;;2.85;1.25;;;20.40;81.40;;;;;;5096213;28;20530;-69
2022/07/03 06:36:01;;;;;;;3.40;1.00;;;20.50;81.30;;;;;;5097395;27;20040;-69
2022/07/03 06:38:29;;;;;;;2.38;1.00;;;20.70;80.90;;;;;;5099165;28;20023;-69
2022/07/03 06:40:55;;;;;;;2.97;1.20;;;20.80;79.30;;;;;;5098463;28;20055;-68
2022/07/03 06:43:23;;;;;;;2.70;1.17;;;20.90;79.80;;;;;;5095912;28;20130;-69
2022/07/03 06:45:49;;;;;;;3.22;1.10;;;21.00;79.10;;;;;;5102612;28;20024;-69
2022/07/03 06:48:15;;;;;;;2.63;1.00;;;21.10;78.90;;;;;;5099142;28;20036;-69
2022/07/03 06:50:40;;;;;;;1.83;1.05;;;21.10;77.30;;;;;;5097149;27;20482;-68
2022/07/03 06:53:06;;;;;;;4.00;1.10;;;21.20;76.50;;;;;;5088624;28;20048;-69
2022/07/03 06:55:32;;;;;;;3.20;1.20;;;21.30;76.90;;;;;;5092105;28;20028;-69
2022/07/03 06:57:58;;;;;;;2.70;1.08;;;21.40;75.70;;;;;;5112160;28;20053;-69
2022/07/03 07:00:26;;;;;;;3.28;1.20;;;21.40;75.00;;;;;;5095130;28;20066;-68
2022/07/03 07:02:52;;;;;;;1.48;0.82;;;21.60;75.80;;;;;;5108257;28;20115;-69
2022/07/03 07:05:25;;;;;;;3.35;1.08;;;21.60;75.30;;;;;;5093575;28;20051;-69
2022/07/03 07:07:50;;;;;;;2.05;1.05;;;21.70;73.10;;;;;;5092805;28;20038;-69
2022/07/03 07:10:16;;;;;;;1.80;0.90;;;21.90;72.10;;;;;;5113507;28;20019;-68
2022/07/03 07:12:41;;;;;;;2.92;1.00;;;21.90;71.30;;;;;;5106609;28;20027;-69
2022/07/03 07:15:07;;;;;;;2.58;1.00;;;22.00;73.60;;;;;;5110294;27;20020;-68
2022/07/03 07:17:33;;;;;;;3.63;1.02;;;22.10;72.70;;;;;;5114802;28;20027;-68
2022/07/03 07:19:59;;;;;;;3.03;1.00;;;22.10;72.10;;;;;;5122602;27;20412;-69
2022/07/03 07:22:25;;;;;;;3.42;0.80;;;22.20;71.00;;;;;;5117273;28;20020;-69
2022/07/03 07:24:51;;;;;;;3.08;1.00;;;22.30;70.50;;;;;;5118631;27;20035;-69
2022/07/03 07:27:17;;;;;;;3.53;1.00;;;22.40;71.00;;;;;;5116442;28;20016;-68
2022/07/03 07:29:42;;;;;;;2.00;0.90;;;23.00;68.40;;;;;;5116813;28;20100;-69
2022/07/03 07:32:08;;;;;;;2.72;0.80;;;23.80;67.60;;;;;;5116971;28;20032;-69
2022/07/03 07:34:34;;;;;;;2.10;0.90;;;25.00;66.30;;;;;;5115510;28;20034;-69
2022/07/03 07:36:59;;;;;;;3.70;0.98;;;25.90;63.70;;;;;;5116622;28;20027;-69
2022/07/03 07:39:25;;;;;;;2.08;0.80;;;26.50;62.40;;;;;;5116629;28;20036;-68
2022/07/03 07:41:53;;;;;;;2.15;0.80;;;26.80;62.40;;;;;;5117585;27;20024;-69
2022/07/03 07:44:18;;;;;;;3.00;0.70;;;27.40;61.80;;;;;;5112793;27;20046;-69
2022/07/03 07:46:44;;;;;;;2.38;0.95;;;28.10;59.30;;;;;;5116850;28;20019;-69
2022/07/03 07:49:10;;;;;;;3.47;0.70;;;28.20;58.50;;;;;;5111583;28;20328;-69
2022/07/03 07:51:35;;;;;;;2.17;0.70;;;27.90;58.70;;;;;;5116132;27;20016;-69
2022/07/03 07:54:01;;;;;;;2.05;0.85;;;27.50;58.90;;;;;;5115834;28;20434;-69
2022/07/03 07:56:26;;;;;;;1.85;0.73;;;27.50;59.10;;;;;;5116479;28;20420;-69
2022/07/03 07:58:52;;;;;;;5.80;1.05;;;27.80;58.00;;;;;;5114473;28;20042;-69
2022/07/03 08:06:50;;;;;;;7.30;0.90;;;28.00;59.20;;;;;;5110078;28;20092;-68
2022/07/03 08:09:16;;;;;;;2.75;0.90;;;28.50;58.00;;;;;;5106227;28;20034;-68
2022/07/03 08:11:42;;;;;;;1.95;0.70;;;28.70;56.30;;;;;;5118285;27;20024;-68
2022/07/03 08:14:08;;;;;;;2.47;0.60;;;28.80;58.20;;;;;;5116608;28;20028;-68
2022/07/03 08:16:34;;;;;;;1.58;0.80;;;29.30;55.40;;;;;;5113706;28;20035;-67
2022/07/03 08:19:01;;;;;;;3.58;0.80;;;28.50;56.00;;;;;;5115560;28;20035;-67
2022/07/03 08:21:26;;;;;;;2.33;0.75;;;28.30;56.00;;;;;;5111794;28;20312;-68
2022/07/03 08:23:53;;;;;;;1.55;0.70;;;28.10;56.40;;;;;;5114004;28;20030;-68
2022/07/03 08:26:18;;;;;;;1.73;0.70;;;28.30;56.90;;;;;;5113229;27;20031;-68
2022/07/03 08:28:44;;;;;;;2.60;0.80;;;28.20;55.70;;;;;;5106107;27;20024;-68
2022/07/03 08:31:10;;;;;;;5.60;1.25;;;28.40;56.50;;;;;;5111582;28;20035;-68
2022/07/03 08:33:38;;;;;;;4.28;2.03;;;28.80;57.00;;;;;;5116446;28;20123;-67
2022/07/03 08:36:07;;;;;;;1.38;0.68;;;29.10;55.30;;;;;;5110640;28;20020;-67
2022/07/03 08:38:34;;;;;;;2.55;0.50;;;29.00;53.60;;;;;;5114752;28;20350;-68
2022/07/03 08:41:01;;;;;;;2.72;0.70;;;29.30;55.10;;;;;;5112930;28;20028;-67
2022/07/03 08:43:27;;;;;;;3.55;0.70;;;29.70;55.20;;;;;;5112576;27;20039;-68
2022/07/03 08:45:58;;;;;;;2.10;0.77;;;30.20;52.30;;;;;;5113326;27;20053;-68
2022/07/03 08:48:25;;;;;;;18.48;10.50;;;30.10;52.80;;;;;;5123042;27;20378;-69
2022/07/03 08:51:06;;;;;;;2.83;0.70;;;29.30;55.30;;;;;;5113576;27;20033;-66
2022/07/03 08:53:32;;;;;;;2.47;0.70;;;28.80;53.80;;;;;;5112726;27;20042;-67
2022/07/03 08:56:03;;;;;;;1.48;0.65;;;28.90;53.80;;;;;;5111374;27;20044;-67
2022/07/03 08:58:31;;;;;;;1.85;0.68;;;29.30;51.70;;;;;;5103830;27;20375;-67
2022/07/03 09:00:57;;;;;;;2.78;0.70;;;29.20;50.80;;;;;;5110261;27;20435;-66
2022/07/03 09:03:24;;;;;;;1.30;0.50;;;28.90;52.10;;;;;;5110174;28;20231;-67
2022/07/03 09:05:54;;;;;;;4.97;1.55;;;29.00;52.40;;;;;;5117485;27;20061;-66
2022/07/03 09:08:22;;;;;;;3.20;0.85;;;28.90;53.10;;;;;;5112499;27;20028;-66
2022/07/03 09:10:48;;;;;;;7.30;0.90;;;28.90;53.60;;;;;;5116307;27;20652;-66
2022/07/03 09:13:17;;;;;;;2.22;0.80;;;29.30;52.90;;;;;;5113483;27;20080;-66
2022/07/03 09:15:44;;;;;;;2.35;1.00;;;29.30;54.00;;;;;;5112708;27;20058;-67
2022/07/03 09:18:09;;;;;;;1.73;0.70;;;29.10;53.70;;;;;;5113611;28;20468;-68
2022/07/03 09:20:38;;;;;;;1.13;0.55;;;29.10;53.10;;;;;;5109939;28;20084;-68
2022/07/03 09:23:15;;;;;;;2.63;0.60;;;29.70;52.90;;;;;;5113370;27;20019;-69
2022/07/03 09:25:58;;;;;;;3.00;0.77;;;30.30;51.50;;;;;;5104743;27;20035;-68
2022/07/03 09:28:45;;;;;;;2.40;0.60;;;30.60;51.30;;;;;;5120198;27;20028;-69
2022/07/03 09:31:15;;;;;;;2.45;0.80;;;31.30;50.60;;;;;;5112683;27;20042;-67
2022/07/03 09:33:55;;;;;;;1.90;0.70;;;30.40;49.20;;;;;;5115602;27;20028;-67
2022/07/03 09:36:23;;;;;;;2.10;0.70;;;29.90;50.60;;;;;;5112125;28;20038;-68
2022/07/03 09:38:49;;;;;;;3.17;0.73;;;30.20;50.10;;;;;;5120356;28;20023;-69
2022/07/03 09:41:14;;;;;;;2.28;0.70;;;30.00;52.00;;;;;;5108835;28;20016;-68
2022/07/03 09:43:44;;;;;;;1.20;0.60;;;30.50;52.60;;;;;;5129473;28;20457;-68
2022/07/03 09:46:10;;;;;;;1.58;0.50;;;30.70;49.70;;;;;;5120525;28;20481;-67
2022/07/03 09:48:39;;;;;;;3.97;0.80;;;30.80;50.40;;;;;;5107286;28;20042;-67
2022/07/03 09:51:25;;;;;;;0.57;0.40;;;31.30;51.40;;;;;;5115216;28;20067;-66
2022/07/03 09:53:55;;;;;;;1.55;0.57;;;31.30;50.20;;;;;;5112139;28;20108;-67
2022/07/03 09:56:35;;;;;;;2.83;0.55;;;31.30;51.40;;;;;;5113309;28;20439;-69
2022/07/03 09:59:15;;;;;;;1.38;0.50;;;32.20;49.50;;;;;;5120385;28;20415;-69
2022/07/03 10:01:43;;;;;;;2.20;0.60;;;31.90;49.50;;;;;;5114332;28;20076;-68
2022/07/03 10:04:11;;;;;;;1.55;0.60;;;31.50;48.70;;;;;;5116287;28;20016;-67
2022/07/03 10:06:56;;;;;;;1.77;0.50;;;30.60;50.30;;;;;;5111554;28;20026;-68
2022/07/03 10:09:33;;;;;;;1.45;0.60;;;30.70;50.80;;;;;;5113041;28;20379;-68
2022/07/03 10:12:04;;;;;;;1.55;0.57;;;31.40;50.00;;;;;;5110345;28;20425;-68
2022/07/03 10:14:32;;;;;;;1.67;0.68;;;32.10;48.80;;;;;;5113314;28;20424;-68
2022/07/03 10:17:00;;;;;;;1.20;0.68;;;31.40;48.30;;;;;;5109691;28;20419;-68
2022/07/03 10:19:36;;;;;;;2.53;0.73;;;30.90;50.30;;;;;;5112602;28;20172;-68
2022/07/03 10:22:09;;;;;;;4.38;0.60;;;31.30;50.10;;;;;;5114316;28;20026;-69
2022/07/03 10:24:40;;;;;;;2.45;0.60;;;30.70;49.90;;;;;;5100199;28;20052;-69
2022/07/03 10:27:07;;;;;;;4.25;0.75;;;30.70;50.70;;;;;;5112365;28;20149;-68
2022/07/03 10:29:36;;;;;;;2.63;0.70;;;30.70;51.40;;;;;;5110123;27;20114;-68
2022/07/03 10:32:06;;;;;;;1.25;0.60;;;31.10;52.50;;;;;;5109137;27;20023;-68
2022/07/03 10:34:32;;;;;;;1.35;0.70;;;31.90;49.70;;;;;;5115949;27;20431;-69
2022/07/03 10:37:05;;;;;;;2.05;0.60;;;32.30;49.20;;;;;;5121411;27;20031;-68
2022/07/03 10:39:58;;;;;;;1.55;0.68;;;32.10;48.50;;;;;;5114369;28;20321;-68
2022/07/03 10:45:29;;;;;;;1.98;0.80;;;31.20;48.90;;;;;;5105562;28;20104;-67
2022/07/03 10:47:54;;;;;;;2.88;0.80;;;30.50;50.20;;;;;;5118122;28;20374;-68
2022/07/03 10:50:24;;;;;;;1.98;0.60;;;30.30;50.70;;;;;;5115139;28;20036;-68
2022/07/03 10:52:51;;;;;;;3.30;0.80;;;30.50;49.70;;;;;;5111621;28;20031;-68
2022/07/03 10:55:17;;;;;;;1.27;0.52;;;30.60;49.90;;;;;;5118493;28;20050;-68
2022/07/03 10:58:06;;;;;;;3.40;0.98;;;31.00;50.70;;;;;;5118016;28;20015;-68
2022/07/03 11:00:52;;;;;;;1.80;0.60;;;31.00;50.20;;;;;;5117126;28;20035;-68
2022/07/03 11:03:57;;;;;;;1.92;0.73;;;31.70;49.00;;;;;;5111560;28;20028;-68
2022/07/03 11:06:44;;;;;;;1.20;0.60;;;31.80;50.00;;;;;;5115720;28;20107;-68
2022/07/03 11:09:13;;;;;;;1.13;0.68;;;30.50;50.10;;;;;;5110891;28;20035;-68
2022/07/03 11:11:54;;;;;;;1.58;0.60;;;30.20;51.00;;;;;;5116536;27;20023;-68
2022/07/03 11:14:23;;;;;;;3.30;0.70;;;30.60;53.20;;;;;;5116280;28;20366;-67
2022/07/03 11:16:51;;;;;;;2.80;0.80;;;31.20;52.10;;;;;;5112139;28;20038;-68
2022/07/03 11:19:25;;;;;;;2.15;0.85;;;31.00;50.10;;;;;;5114071;28;20024;-68
2022/07/03 11:21:58;;;;;;;3.35;1.02;;;30.60;52.90;;;;;;5110765;28;20028;-68
2022/07/03 11:24:28;;;;;;;3.25;0.80;;;30.20;51.50;;;;;;5105186;28;20020;-69
2022/07/03 11:27:20;;;;;;;1.70;0.80;;;29.80;52.20;;;;;;5107799;28;20024;-68
2022/07/03 11:29:52;;;;;;;2.15;0.88;;;30.20;50.90;;;;;;5118559;27;20077;-68
2022/07/03 11:32:44;;;;;;;2.40;0.85;;;30.70;53.20;;;;;;5113955;28;20035;-68
2022/07/03 11:35:56;;;;;;;2.47;0.80;;;31.00;51.10;;;;;;5112519;28;20494;-68
2022/07/03 11:38:26;;;;;;;4.40;0.68;;;31.00;51.60;;;;;;5117313;28;20032;-68
2022/07/03 11:40:53;;;;;;;3.85;0.90;;;31.10;52.60;;;;;;5118637;27;20059;-68
2022/07/03 11:43:20;;;;;;;2.47;0.85;;;30.50;51.90;;;;;;5129970;27;20111;-68
2022/07/03 11:45:49;;;;;;;2.97;0.95;;;30.30;53.10;;;;;;5117466;28;20023;-68
2022/07/03 11:48:23;;;;;;;2.25;0.90;;;30.30;52.60;;;;;;5117342;28;20039;-68
2022/07/03 11:50:50;;;;;;;2.83;0.80;;;30.20;52.60;;;;;;5112700;28;20035;-68
2022/07/03 11:53:16;;;;;;;2.97;0.80;;;30.40;53.80;;;;;;5117345;28;20417;-67
2022/07/03 11:55:52;;;;;;;2.75;0.77;;;30.60;51.40;;;;;;5117537;28;20031;-67
2022/07/03 11:58:18;;;;;;;2.17;0.80;;;30.70;53.10;;;;;;5116583;28;20063;-67
2022/07/03 12:00:47;;;;;;;2.22;0.70;;;30.60;51.80;;;;;;5118186;27;20046;-67
2022/07/03 12:03:22;;;;;;;2.13;0.60;;;30.40;51.40;;;;;;5111923;28;20024;-67
2022/07/03 12:05:58;;;;;;;1.90;0.80;;;30.40;53.00;;;;;;5106788;28;20020;-68
2022/07/03 12:08:33;;;;;;;3.28;0.80;;;30.80;51.50;;;;;;5117069;28;20032;-68
2022/07/03 12:11:09;;;;;;;3.53;0.85;;;30.60;52.00;;;;;;5116679;28;20031;-69
2022/07/03 12:13:35;;;;;;;3.78;0.80;;;30.70;50.90;;;;;;5115552;28;20173;-69
2022/07/03 12:16:08;;;;;;;4.30;0.80;;;31.00;51.50;;;;;;5116518;27;20696;-68
2022/07/03 12:18:54;;;;;;;4.10;0.90;;;30.80;52.00;;;;;;5099147;28;20020;-68
2022/07/03 12:21:22;;;;;;;3.50;0.80;;;31.00;52.50;;;;;;5115036;28;20072;-68
2022/07/03 12:23:47;;;;;;;3.42;0.77;;;30.60;51.80;;;;;;5102629;28;20024;-68
2022/07/03 12:26:36;;;;;;;1.73;0.68;;;30.60;51.30;;;;;;5116263;27;20023;-68
2022/07/03 12:29:07;;;;;;;1.83;0.70;;;31.20;51.10;;;;;;5115455;27;20106;-68
2022/07/03 12:31:38;;;;;;;4.43;1.02;;;31.30;50.50;;;;;;5117207;28;20373;-68
2022/07/03 12:34:04;;;;;;;1.95;0.70;;;31.50;51.40;;;;;;5097483;28;20028;-68
2022/07/03 12:36:30;;;;;;;2.28;0.90;;;31.90;49.80;;;;;;5099079;28;20038;-68
2022/07/03 12:38:57;;;;;;;3.90;0.90;;;31.70;50.70;;;;;;5111506;28;20119;-68
2022/07/03 12:41:24;;;;;;;3.05;0.88;;;31.70;51.60;;;;;;5097023;28;20043;-68
2022/07/03 12:43:51;;;;;;;2.28;0.70;;;32.40;49.10;;;;;;5106809;28;20040;-68
2022/07/03 12:46:22;;;;;;;2.22;0.70;;;32.50;48.50;;;;;;5113484;28;20337;-68
2022/07/03 12:48:53;;;;;;;1.77;0.65;;;32.10;49.90;;;;;;5105820;28;20027;-68
2022/07/03 12:51:45;;;;;;;2.17;0.80;;;32.10;49.30;;;;;;5115405;28;20344;-68
2022/07/03 12:54:16;;;;;;;3.70;0.85;;;31.90;50.00;;;;;;5114365;27;20088;-68
2022/07/03 12:56:45;;;;;;;2.00;0.90;;;31.80;49.30;;;;;;5115592;28;20447;-68
2022/07/03 12:59:27;;;;;;;6.18;0.93;;;31.60;49.00;;;;;;5115527;28;20110;-68
2022/07/03 13:02:06;;;;;;;3.75;0.70;;;31.70;49.80;;;;;;5114864;28;20077;-68
2022/07/03 13:04:31;;;;;;;1.63;0.70;;;32.00;49.70;;;;;;5114588;28;20293;-68
2022/07/03 13:07:10;;;;;;;6.03;1.05;;;32.50;51.80;;;;;;5105831;28;20069;-67
2022/07/03 13:09:43;;;;;;;2.53;0.70;;;32.70;49.50;;;;;;5113222;28;20477;-68
2022/07/03 13:12:22;;;;;;;2.50;0.70;;;32.50;48.50;;;;;;5109993;28;20289;-69
2022/07/03 13:15:01;;;;;;;1.92;0.80;;;32.60;49.30;;;;;;5112683;28;20032;-68